sensor_id;sensor_type;location;lat;lon;timestamp;P1;durP1;ratioP1;P2;durP2;ratioP2
72649;SDS011;61467;50.674;4.618;2023-07-28T00:00:05;5.45;;;1.80;;
72649;SDS011;61467;50.674;4.618;2023-07-28T00:02:34;6.55;;;1.80;;
72649;SDS011;61467;50.674;4.618;2023-07-28T00:05:00;7.63;;;2.00;;
72649;SDS011;61467;50.674;4.618;2023-07-28T00:07:27;6.35;;;2.28;;
72649;SDS011;61467;50.674;4.618;2023-07-28T00:09:54;5.90;;;1.92;;
72649;SDS011;61467;50.674;4.618;2023-07-28T00:12:21;6.13;;;1.90;;
72649;SDS011;61467;50.674;4.618;2023-07-28T00:14:49;7.40;;;2.40;;
72649;SDS011;61467;50.674;4.618;2023-07-28T00:17:16;5.90;;;1.80;;
72649;SDS011;61467;50.674;4.618;2023-07-28T00:19:43;6.32;;;1.83;;
72649;SDS011;61467;50.674;4.618;2023-07-28T00:22:09;5.20;;;1.50;;
72649;SDS011;61467;50.674;4.618;2023-07-28T00:24:36;5.70;;;1.83;;
72649;SDS011;61467;50.674;4.618;2023-07-28T00:27:03;8.50;;;1.98;;
72649;SDS011;61467;50.674;4.618;2023-07-28T00:29:30;7.20;;;2.20;;
72649;SDS011;61467;50.674;4.618;2023-07-28T00:31:59;6.85;;;1.90;;
72649;SDS011;61467;50.674;4.618;2023-07-28T00:34:25;6.00;;;2.13;;
72649;SDS011;61467;50.674;4.618;2023-07-28T00:36:52;7.15;;;2.10;;
72649;SDS011;61467;50.674;4.618;2023-07-28T00:39:19;5.55;;;1.88;;
72649;SDS011;61467;50.674;4.618;2023-07-28T00:41:46;8.33;;;2.60;;
72649;SDS011;61467;50.674;4.618;2023-07-28T00:44:13;5.68;;;2.13;;
72649;SDS011;61467;50.674;4.618;2023-07-28T00:46:41;7.82;;;2.25;;
72649;SDS011;61467;50.674;4.618;2023-07-28T00:49:10;6.30;;;2.00;;
72649;SDS011;61467;50.674;4.618;2023-07-28T00:51:37;6.72;;;2.13;;
72649;SDS011;61467;50.674;4.618;2023-07-28T00:54:04;7.03;;;2.07;;
72649;SDS011;61467;50.674;4.618;2023-07-28T00:56:31;6.75;;;2.40;;
72649;SDS011;61467;50.674;4.618;2023-07-28T00:58:58;7.05;;;2.00;;
72649;SDS011;61467;50.674;4.618;2023-07-28T01:01:25;9.13;;;2.35;;
72649;SDS011;61467;50.674;4.618;2023-07-28T01:03:52;6.63;;;2.10;;
72649;SDS011;61467;50.674;4.618;2023-07-28T01:06:24;7.50;;;2.27;;
72649;SDS011;61467;50.674;4.618;2023-07-28T01:09:02;7.63;;;2.83;;
72649;SDS011;61467;50.674;4.618;2023-07-28T01:11:30;6.72;;;2.35;;
72649;SDS011;61467;50.674;4.618;2023-07-28T01:13:57;7.32;;;2.25;;
72649;SDS011;61467;50.674;4.618;2023-07-28T01:16:24;6.72;;;2.60;;
72649;SDS011;61467;50.674;4.618;2023-07-28T01:18:51;8.43;;;2.80;;
72649;SDS011;61467;50.674;4.618;2023-07-28T01:21:20;7.68;;;2.25;;
72649;SDS011;61467;50.674;4.618;2023-07-28T01:24:00;7.70;;;2.50;;
72649;SDS011;61467;50.674;4.618;2023-07-28T01:26:35;6.60;;;2.20;;
72649;SDS011;61467;50.674;4.618;2023-07-28T01:29:03;6.50;;;2.20;;
72649;SDS011;61467;50.674;4.618;2023-07-28T01:31:31;7.13;;;2.50;;
72649;SDS011;61467;50.674;4.618;2023-07-28T01:33:57;11.20;;;2.83;;
72649;SDS011;61467;50.674;4.618;2023-07-28T01:36:24;7.00;;;2.47;;
72649;SDS011;61467;50.674;4.618;2023-07-28T01:38:51;7.93;;;2.25;;
72649;SDS011;61467;50.674;4.618;2023-07-28T01:41:19;7.03;;;2.70;;
72649;SDS011;61467;50.674;4.618;2023-07-28T01:43:47;6.90;;;2.80;;
72649;SDS011;61467;50.674;4.618;2023-07-28T01:46:14;8.30;;;3.05;;
72649;SDS011;61467;50.674;4.618;2023-07-28T01:48:41;7.45;;;2.38;;
72649;SDS011;61467;50.674;4.618;2023-07-28T01:51:07;8.23;;;2.42;;
72649;SDS011;61467;50.674;4.618;2023-07-28T01:53:34;7.20;;;2.60;;
72649;SDS011;61467;50.674;4.618;2023-07-28T01:56:01;7.27;;;2.40;;
72649;SDS011;61467;50.674;4.618;2023-07-28T01:58:28;11.63;;;2.90;;
72649;SDS011;61467;50.674;4.618;2023-07-28T02:00:56;6.65;;;2.22;;
72649;SDS011;61467;50.674;4.618;2023-07-28T02:03:23;7.60;;;2.47;;
72649;SDS011;61467;50.674;4.618;2023-07-28T02:05:50;9.77;;;3.65;;
72649;SDS011;61467;50.674;4.618;2023-07-28T02:08:17;6.60;;;2.40;;
72649;SDS011;61467;50.674;4.618;2023-07-28T02:10:44;7.28;;;1.98;;
72649;SDS011;61467;50.674;4.618;2023-07-28T02:13:11;6.50;;;2.42;;
72649;SDS011;61467;50.674;4.618;2023-07-28T02:15:38;8.02;;;2.33;;
72649;SDS011;61467;50.674;4.618;2023-07-28T02:18:06;6.72;;;2.33;;
72649;SDS011;61467;50.674;4.618;2023-07-28T02:20:33;6.63;;;2.30;;
72649;SDS011;61467;50.674;4.618;2023-07-28T02:23:01;5.80;;;1.75;;
72649;SDS011;61467;50.674;4.618;2023-07-28T02:25:27;5.95;;;2.42;;
72649;SDS011;61467;50.674;4.618;2023-07-28T02:27:54;6.95;;;2.55;;
72649;SDS011;61467;50.674;4.618;2023-07-28T02:30:21;6.53;;;2.30;;
72649;SDS011;61467;50.674;4.618;2023-07-28T02:32:48;5.80;;;2.10;;
72649;SDS011;61467;50.674;4.618;2023-07-28T02:35:16;8.63;;;2.60;;
72649;SDS011;61467;50.674;4.618;2023-07-28T02:37:43;9.77;;;2.80;;
72649;SDS011;61467;50.674;4.618;2023-07-28T02:40:10;6.60;;;2.47;;
72649;SDS011;61467;50.674;4.618;2023-07-28T02:42:38;7.20;;;2.72;;
72649;SDS011;61467;50.674;4.618;2023-07-28T02:45:05;6.13;;;2.33;;
72649;SDS011;61467;50.674;4.618;2023-07-28T02:47:32;8.10;;;2.45;;
72649;SDS011;61467;50.674;4.618;2023-07-28T02:49:59;7.35;;;2.20;;
72649;SDS011;61467;50.674;4.618;2023-07-28T02:52:27;6.30;;;2.10;;
72649;SDS011;61467;50.674;4.618;2023-07-28T02:54:55;6.63;;;2.20;;
72649;SDS011;61467;50.674;4.618;2023-07-28T02:57:20;6.43;;;2.30;;
72649;SDS011;61467;50.674;4.618;2023-07-28T02:59:47;8.98;;;2.15;;
72649;SDS011;61467;50.674;4.618;2023-07-28T03:02:16;9.65;;;2.33;;
72649;SDS011;61467;50.674;4.618;2023-07-28T03:04:43;7.80;;;2.40;;
72649;SDS011;61467;50.674;4.618;2023-07-28T03:07:10;8.57;;;2.22;;
72649;SDS011;61467;50.674;4.618;2023-07-28T03:09:38;6.10;;;2.17;;
72649;SDS011;61467;50.674;4.618;2023-07-28T03:12:05;6.75;;;2.50;;
72649;SDS011;61467;50.674;4.618;2023-07-28T03:14:32;7.53;;;2.22;;
72649;SDS011;61467;50.674;4.618;2023-07-28T03:16:59;7.10;;;1.60;;
72649;SDS011;61467;50.674;4.618;2023-07-28T03:19:26;6.28;;;2.05;;
72649;SDS011;61467;50.674;4.618;2023-07-28T03:21:53;6.20;;;1.90;;
72649;SDS011;61467;50.674;4.618;2023-07-28T03:24:20;6.05;;;2.20;;
72649;SDS011;61467;50.674;4.618;2023-07-28T03:26:48;6.80;;;1.95;;
72649;SDS011;61467;50.674;4.618;2023-07-28T03:29:15;5.60;;;2.30;;
72649;SDS011;61467;50.674;4.618;2023-07-28T03:31:43;5.88;;;1.85;;
72649;SDS011;61467;50.674;4.618;2023-07-28T03:34:10;8.53;;;2.40;;
72649;SDS011;61467;50.674;4.618;2023-07-28T03:36:37;5.05;;;1.80;;
72649;SDS011;61467;50.674;4.618;2023-07-28T03:39:03;6.57;;;2.05;;
72649;SDS011;61467;50.674;4.618;2023-07-28T03:41:30;6.50;;;2.42;;
72649;SDS011;61467;50.674;4.618;2023-07-28T03:43:58;6.47;;;2.20;;
72649;SDS011;61467;50.674;4.618;2023-07-28T03:46:25;9.40;;;2.30;;
72649;SDS011;61467;50.674;4.618;2023-07-28T03:48:52;6.32;;;1.95;;
72649;SDS011;61467;50.674;4.618;2023-07-28T03:51:19;5.70;;;1.98;;
72649;SDS011;61467;50.674;4.618;2023-07-28T03:53:46;6.45;;;1.88;;
72649;SDS011;61467;50.674;4.618;2023-07-28T03:56:12;6.63;;;2.13;;
72649;SDS011;61467;50.674;4.618;2023-07-28T03:58:39;7.50;;;2.20;;
72649;SDS011;61467;50.674;4.618;2023-07-28T04:01:07;6.47;;;2.33;;
72649;SDS011;61467;50.674;4.618;2023-07-28T04:03:35;4.93;;;1.67;;
72649;SDS011;61467;50.674;4.618;2023-07-28T04:06:05;6.05;;;2.20;;
72649;SDS011;61467;50.674;4.618;2023-07-28T04:08:33;6.43;;;2.30;;
72649;SDS011;61467;50.674;4.618;2023-07-28T04:11:00;7.20;;;1.70;;
72649;SDS011;61467;50.674;4.618;2023-07-28T04:13:26;6.05;;;1.75;;
72649;SDS011;61467;50.674;4.618;2023-07-28T04:15:53;5.03;;;1.83;;
72649;SDS011;61467;50.674;4.618;2023-07-28T04:18:21;7.03;;;1.80;;
72649;SDS011;61467;50.674;4.618;2023-07-28T04:20:48;5.78;;;1.90;;
72649;SDS011;61467;50.674;4.618;2023-07-28T04:23:15;5.27;;;1.60;;
72649;SDS011;61467;50.674;4.618;2023-07-28T04:25:42;5.07;;;1.50;;
72649;SDS011;61467;50.674;4.618;2023-07-28T04:28:09;5.07;;;1.58;;
72649;SDS011;61467;50.674;4.618;2023-07-28T04:30:35;5.32;;;1.50;;
72649;SDS011;61467;50.674;4.618;2023-07-28T04:33:02;5.28;;;2.10;;
72649;SDS011;61467;50.674;4.618;2023-07-28T04:35:31;5.27;;;1.60;;
72649;SDS011;61467;50.674;4.618;2023-07-28T04:37:57;6.07;;;1.90;;
72649;SDS011;61467;50.674;4.618;2023-07-28T04:40:24;7.75;;;1.85;;
72649;SDS011;61467;50.674;4.618;2023-07-28T04:42:51;5.82;;;2.00;;
72649;SDS011;61467;50.674;4.618;2023-07-28T04:45:18;6.22;;;1.80;;
72649;SDS011;61467;50.674;4.618;2023-07-28T04:47:48;6.60;;;1.90;;
72649;SDS011;61467;50.674;4.618;2023-07-28T04:50:15;6.93;;;2.05;;
72649;SDS011;61467;50.674;4.618;2023-07-28T04:52:43;5.88;;;2.00;;
72649;SDS011;61467;50.674;4.618;2023-07-28T04:55:10;5.53;;;1.60;;
72649;SDS011;61467;50.674;4.618;2023-07-28T04:57:36;6.30;;;2.10;;
72649;SDS011;61467;50.674;4.618;2023-07-28T05:00:04;6.40;;;1.87;;
72649;SDS011;61467;50.674;4.618;2023-07-28T05:02:32;6.60;;;2.00;;
72649;SDS011;61467;50.674;4.618;2023-07-28T05:04:59;6.22;;;1.98;;
72649;SDS011;61467;50.674;4.618;2023-07-28T05:07:26;7.57;;;2.10;;
72649;SDS011;61467;50.674;4.618;2023-07-28T05:09:55;5.72;;;2.38;;
72649;SDS011;61467;50.674;4.618;2023-07-28T05:12:22;5.13;;;2.07;;
72649;SDS011;61467;50.674;4.618;2023-07-28T05:14:49;5.45;;;1.83;;
72649;SDS011;61467;50.674;4.618;2023-07-28T05:17:16;6.55;;;2.00;;
72649;SDS011;61467;50.674;4.618;2023-07-28T05:19:42;7.07;;;1.90;;
72649;SDS011;61467;50.674;4.618;2023-07-28T05:22:09;5.07;;;1.52;;
72649;SDS011;61467;50.674;4.618;2023-07-28T05:24:36;7.47;;;1.57;;
72649;SDS011;61467;50.674;4.618;2023-07-28T05:27:04;6.57;;;1.65;;
72649;SDS011;61467;50.674;4.618;2023-07-28T05:29:31;7.15;;;1.70;;
72649;SDS011;61467;50.674;4.618;2023-07-28T05:31:58;4.88;;;1.50;;
72649;SDS011;61467;50.674;4.618;2023-07-28T05:34:25;6.93;;;1.63;;
72649;SDS011;61467;50.674;4.618;2023-07-28T05:36:52;6.83;;;1.70;;
72649;SDS011;61467;50.674;4.618;2023-07-28T05:39:19;6.40;;;1.60;;
72649;SDS011;61467;50.674;4.618;2023-07-28T05:41:46;6.95;;;1.90;;
72649;SDS011;61467;50.674;4.618;2023-07-28T05:44:14;5.20;;;1.90;;
72649;SDS011;61467;50.674;4.618;2023-07-28T05:46:41;5.13;;;1.77;;
72649;SDS011;61467;50.674;4.618;2023-07-28T05:49:08;4.73;;;1.73;;
72649;SDS011;61467;50.674;4.618;2023-07-28T05:51:35;5.32;;;1.65;;
72649;SDS011;61467;50.674;4.618;2023-07-28T05:54:01;4.97;;;1.30;;
72649;SDS011;61467;50.674;4.618;2023-07-28T05:56:28;4.85;;;1.70;;
72649;SDS011;61467;50.674;4.618;2023-07-28T05:58:55;5.93;;;1.60;;
72649;SDS011;61467;50.674;4.618;2023-07-28T06:01:23;4.23;;;1.50;;
72649;SDS011;61467;50.674;4.618;2023-07-28T06:03:52;4.90;;;1.40;;
72649;SDS011;61467;50.674;4.618;2023-07-28T06:06:24;4.72;;;1.30;;
72649;SDS011;61467;50.674;4.618;2023-07-28T06:08:50;4.53;;;1.63;;
72649;SDS011;61467;50.674;4.618;2023-07-28T06:11:20;6.45;;;1.65;;
72649;SDS011;61467;50.674;4.618;2023-07-28T06:13:48;4.87;;;1.60;;
72649;SDS011;61467;50.674;4.618;2023-07-28T06:16:15;4.28;;;1.38;;
72649;SDS011;61467;50.674;4.618;2023-07-28T06:18:43;6.35;;;1.40;;
72649;SDS011;61467;50.674;4.618;2023-07-28T06:21:10;7.63;;;1.48;;
72649;SDS011;61467;50.674;4.618;2023-07-28T06:23:37;8.20;;;1.98;;
72649;SDS011;61467;50.674;4.618;2023-07-28T06:26:04;6.13;;;1.63;;
72649;SDS011;61467;50.674;4.618;2023-07-28T06:28:30;5.30;;;1.70;;
72649;SDS011;61467;50.674;4.618;2023-07-28T06:30:57;6.70;;;1.70;;
72649;SDS011;61467;50.674;4.618;2023-07-28T06:33:25;6.43;;;1.73;;
72649;SDS011;61467;50.674;4.618;2023-07-28T06:35:55;4.68;;;1.70;;
72649;SDS011;61467;50.674;4.618;2023-07-28T06:38:22;5.53;;;1.60;;
72649;SDS011;61467;50.674;4.618;2023-07-28T06:40:49;6.10;;;2.05;;
72649;SDS011;61467;50.674;4.618;2023-07-28T06:43:16;4.40;;;1.50;;
72649;SDS011;61467;50.674;4.618;2023-07-28T06:45:44;5.88;;;2.10;;
72649;SDS011;61467;50.674;4.618;2023-07-28T06:48:11;5.00;;;1.50;;
72649;SDS011;61467;50.674;4.618;2023-07-28T06:50:38;5.80;;;2.10;;
72649;SDS011;61467;50.674;4.618;2023-07-28T06:53:06;6.50;;;1.30;;
72649;SDS011;61467;50.674;4.618;2023-07-28T06:55:32;4.93;;;1.30;;
72649;SDS011;61467;50.674;4.618;2023-07-28T06:57:59;5.60;;;1.23;;
72649;SDS011;61467;50.674;4.618;2023-07-28T07:00:26;5.78;;;1.48;;
72649;SDS011;61467;50.674;4.618;2023-07-28T07:02:53;5.07;;;1.53;;
72649;SDS011;61467;50.674;4.618;2023-07-28T07:05:20;5.22;;;1.40;;
72649;SDS011;61467;50.674;4.618;2023-07-28T07:07:47;4.70;;;1.42;;
72649;SDS011;61467;50.674;4.618;2023-07-28T07:10:15;4.70;;;1.50;;
72649;SDS011;61467;50.674;4.618;2023-07-28T07:12:42;5.72;;;1.48;;
72649;SDS011;61467;50.674;4.618;2023-07-28T07:15:08;5.20;;;1.70;;
72649;SDS011;61467;50.674;4.618;2023-07-28T07:17:37;4.15;;;1.58;;
72649;SDS011;61467;50.674;4.618;2023-07-28T07:20:05;5.65;;;1.55;;
72649;SDS011;61467;50.674;4.618;2023-07-28T07:22:33;7.65;;;2.00;;
72649;SDS011;61467;50.674;4.618;2023-07-28T07:25:00;4.30;;;1.30;;
72649;SDS011;61467;50.674;4.618;2023-07-28T07:27:28;6.10;;;1.50;;
72649;SDS011;61467;50.674;4.618;2023-07-28T07:29:55;5.15;;;1.45;;
72649;SDS011;61467;50.674;4.618;2023-07-28T07:32:22;5.85;;;1.50;;
72649;SDS011;61467;50.674;4.618;2023-07-28T07:34:48;4.50;;;1.40;;
72649;SDS011;61467;50.674;4.618;2023-07-28T07:37:15;4.80;;;1.45;;
72649;SDS011;61467;50.674;4.618;2023-07-28T07:39:42;4.20;;;1.20;;
72649;SDS011;61467;50.674;4.618;2023-07-28T07:42:10;5.25;;;1.40;;
72649;SDS011;61467;50.674;4.618;2023-07-28T07:44:40;4.07;;;1.45;;
72649;SDS011;61467;50.674;4.618;2023-07-28T07:47:13;4.18;;;1.40;;
72649;SDS011;61467;50.674;4.618;2023-07-28T07:49:41;5.22;;;1.70;;
72649;SDS011;61467;50.674;4.618;2023-07-28T07:52:08;4.30;;;1.30;;
72649;SDS011;61467;50.674;4.618;2023-07-28T07:54:36;5.03;;;1.30;;
72649;SDS011;61467;50.674;4.618;2023-07-28T07:57:04;5.45;;;1.70;;
72649;SDS011;61467;50.674;4.618;2023-07-28T07:59:31;5.57;;;1.52;;
72649;SDS011;61467;50.674;4.618;2023-07-28T08:02:02;6.00;;;1.70;;
72649;SDS011;61467;50.674;4.618;2023-07-28T08:04:30;5.13;;;1.60;;
72649;SDS011;61467;50.674;4.618;2023-07-28T08:06:57;4.38;;;1.25;;
72649;SDS011;61467;50.674;4.618;2023-07-28T08:09:24;7.07;;;1.50;;
72649;SDS011;61467;50.674;4.618;2023-07-28T08:11:51;4.43;;;1.40;;
72649;SDS011;61467;50.674;4.618;2023-07-28T08:14:19;5.72;;;1.83;;
72649;SDS011;61467;50.674;4.618;2023-07-28T08:16:45;7.43;;;1.50;;
72649;SDS011;61467;50.674;4.618;2023-07-28T08:19:14;6.07;;;1.70;;
72649;SDS011;61467;50.674;4.618;2023-07-28T08:21:41;5.90;;;1.88;;
72649;SDS011;61467;50.674;4.618;2023-07-28T08:24:08;4.65;;;1.40;;
72649;SDS011;61467;50.674;4.618;2023-07-28T08:26:37;4.28;;;1.60;;
72649;SDS011;61467;50.674;4.618;2023-07-28T08:29:04;5.97;;;1.73;;
72649;SDS011;61467;50.674;4.618;2023-07-28T08:31:31;4.90;;;1.70;;
72649;SDS011;61467;50.674;4.618;2023-07-28T08:33:58;4.57;;;1.30;;
72649;SDS011;61467;50.674;4.618;2023-07-28T08:36:26;7.63;;;1.60;;
72649;SDS011;61467;50.674;4.618;2023-07-28T08:38:53;4.90;;;1.40;;
72649;SDS011;61467;50.674;4.618;2023-07-28T08:41:20;3.97;;;1.40;;
72649;SDS011;61467;50.674;4.618;2023-07-28T08:43:47;4.68;;;1.30;;
72649;SDS011;61467;50.674;4.618;2023-07-28T08:46:16;3.58;;;1.17;;
72649;SDS011;61467;50.674;4.618;2023-07-28T08:48:43;4.68;;;1.60;;
72649;SDS011;61467;50.674;4.618;2023-07-28T08:51:10;5.97;;;1.88;;
72649;SDS011;61467;50.674;4.618;2023-07-28T08:53:39;4.93;;;1.67;;
72649;SDS011;61467;50.674;4.618;2023-07-28T08:56:06;5.10;;;1.60;;
72649;SDS011;61467;50.674;4.618;2023-07-28T08:58:33;4.40;;;1.60;;
72649;SDS011;61467;50.674;4.618;2023-07-28T09:01:00;3.95;;;1.33;;
72649;SDS011;61467;50.674;4.618;2023-07-28T09:03:27;5.40;;;1.05;;
72649;SDS011;61467;50.674;4.618;2023-07-28T09:05:58;3.90;;;1.40;;
72649;SDS011;61467;50.674;4.618;2023-07-28T09:08:26;3.97;;;1.50;;
72649;SDS011;61467;50.674;4.618;2023-07-28T09:10:55;3.80;;;1.20;;
72649;SDS011;61467;50.674;4.618;2023-07-28T09:13:22;4.97;;;1.45;;
72649;SDS011;61467;50.674;4.618;2023-07-28T09:15:49;4.40;;;1.30;;
72649;SDS011;61467;50.674;4.618;2023-07-28T09:18:16;5.43;;;1.23;;
72649;SDS011;61467;50.674;4.618;2023-07-28T09:20:44;4.32;;;1.30;;
72649;SDS011;61467;50.674;4.618;2023-07-28T09:23:14;4.15;;;1.10;;
72649;SDS011;61467;50.674;4.618;2023-07-28T09:25:41;4.55;;;1.42;;
72649;SDS011;61467;50.674;4.618;2023-07-28T09:28:10;6.07;;;1.52;;
72649;SDS011;61467;50.674;4.618;2023-07-28T09:30:44;4.37;;;1.20;;
72649;SDS011;61467;50.674;4.618;2023-07-28T09:33:12;4.88;;;1.40;;
72649;SDS011;61467;50.674;4.618;2023-07-28T09:35:47;5.13;;;1.50;;
72649;SDS011;61467;50.674;4.618;2023-07-28T09:38:15;5.97;;;1.42;;
72649;SDS011;61467;50.674;4.618;2023-07-28T09:40:42;4.93;;;1.58;;
72649;SDS011;61467;50.674;4.618;2023-07-28T09:43:11;5.40;;;2.23;;
72649;SDS011;61467;50.674;4.618;2023-07-28T09:45:38;4.15;;;1.50;;
72649;SDS011;61467;50.674;4.618;2023-07-28T09:48:06;4.32;;;1.60;;
72649;SDS011;61467;50.674;4.618;2023-07-28T09:50:36;4.25;;;1.60;;
72649;SDS011;61467;50.674;4.618;2023-07-28T09:53:04;5.28;;;1.85;;
72649;SDS011;61467;50.674;4.618;2023-07-28T09:55:35;6.33;;;1.90;;
72649;SDS011;61467;50.674;4.618;2023-07-28T09:58:05;4.95;;;1.83;;
72649;SDS011;61467;50.674;4.618;2023-07-28T10:00:34;4.80;;;1.70;;
72649;SDS011;61467;50.674;4.618;2023-07-28T10:03:01;5.00;;;1.73;;
72649;SDS011;61467;50.674;4.618;2023-07-28T10:05:29;5.00;;;1.65;;
72649;SDS011;61467;50.674;4.618;2023-07-28T10:07:56;5.60;;;1.93;;
72649;SDS011;61467;50.674;4.618;2023-07-28T10:10:24;4.70;;;2.00;;
72649;SDS011;61467;50.674;4.618;2023-07-28T10:12:52;9.32;;;1.65;;
72649;SDS011;61467;50.674;4.618;2023-07-28T10:15:20;4.80;;;1.70;;
72649;SDS011;61467;50.674;4.618;2023-07-28T10:17:55;4.20;;;1.48;;
72649;SDS011;61467;50.674;4.618;2023-07-28T10:20:27;4.37;;;1.40;;
72649;SDS011;61467;50.674;4.618;2023-07-28T10:23:06;5.35;;;1.48;;
72649;SDS011;61467;50.674;4.618;2023-07-28T10:25:37;4.00;;;1.20;;
72649;SDS011;61467;50.674;4.618;2023-07-28T10:28:05;4.22;;;1.70;;
72649;SDS011;61467;50.674;4.618;2023-07-28T10:30:35;4.40;;;1.30;;
72649;SDS011;61467;50.674;4.618;2023-07-28T10:33:05;4.87;;;1.60;;
72649;SDS011;61467;50.674;4.618;2023-07-28T10:35:32;5.68;;;1.75;;
72649;SDS011;61467;50.674;4.618;2023-07-28T10:41:07;4.05;;;1.30;;
72649;SDS011;61467;50.674;4.618;2023-07-28T10:43:38;3.60;;;1.17;;
72649;SDS011;61467;50.674;4.618;2023-07-28T10:46:06;4.63;;;1.10;;
72649;SDS011;61467;50.674;4.618;2023-07-28T10:48:36;4.50;;;1.33;;
72649;SDS011;61467;50.674;4.618;2023-07-28T10:51:07;4.45;;;1.50;;
72649;SDS011;61467;50.674;4.618;2023-07-28T10:53:34;4.15;;;1.45;;
72649;SDS011;61467;50.674;4.618;2023-07-28T10:56:02;5.15;;;1.27;;
72649;SDS011;61467;50.674;4.618;2023-07-28T10:58:30;5.30;;;1.60;;
72649;SDS011;61467;50.674;4.618;2023-07-28T11:00:57;3.83;;;1.20;;
72649;SDS011;61467;50.674;4.618;2023-07-28T11:03:24;4.57;;;1.40;;
72649;SDS011;61467;50.674;4.618;2023-07-28T11:05:53;4.78;;;1.42;;
72649;SDS011;61467;50.674;4.618;2023-07-28T11:08:22;4.18;;;1.20;;
72649;SDS011;61467;50.674;4.618;2023-07-28T11:10:49;3.97;;;1.20;;
72649;SDS011;61467;50.674;4.618;2023-07-28T11:13:16;4.43;;;1.27;;
72649;SDS011;61467;50.674;4.618;2023-07-28T11:15:42;4.32;;;1.30;;
72649;SDS011;61467;50.674;4.618;2023-07-28T11:18:09;4.93;;;1.42;;
72649;SDS011;61467;50.674;4.618;2023-07-28T11:20:36;4.07;;;1.17;;
72649;SDS011;61467;50.674;4.618;2023-07-28T11:23:04;3.43;;;1.10;;
72649;SDS011;61467;50.674;4.618;2023-07-28T11:25:31;4.60;;;0.95;;
72649;SDS011;61467;50.674;4.618;2023-07-28T11:28:00;4.05;;;1.02;;
72649;SDS011;61467;50.674;4.618;2023-07-28T11:30:28;3.10;;;0.70;;
72649;SDS011;61467;50.674;4.618;2023-07-28T11:32:55;4.63;;;1.20;;
72649;SDS011;61467;50.674;4.618;2023-07-28T11:35:22;2.97;;;0.90;;
72649;SDS011;61467;50.674;4.618;2023-07-28T11:37:49;3.40;;;0.95;;
72649;SDS011;61467;50.674;4.618;2023-07-28T11:40:19;4.00;;;0.98;;
72649;SDS011;61467;50.674;4.618;2023-07-28T11:42:48;3.22;;;1.00;;
72649;SDS011;61467;50.674;4.618;2023-07-28T11:45:17;3.45;;;0.68;;
72649;SDS011;61467;50.674;4.618;2023-07-28T11:47:56;3.17;;;0.83;;
72649;SDS011;61467;50.674;4.618;2023-07-28T11:50:25;2.70;;;0.80;;
72649;SDS011;61467;50.674;4.618;2023-07-28T11:52:53;2.70;;;0.80;;
72649;SDS011;61467;50.674;4.618;2023-07-28T11:55:21;3.63;;;0.80;;
72649;SDS011;61467;50.674;4.618;2023-07-28T11:57:49;3.00;;;0.70;;
72649;SDS011;61467;50.674;4.618;2023-07-28T12:00:17;3.17;;;1.13;;
72649;SDS011;61467;50.674;4.618;2023-07-28T12:02:59;3.05;;;1.10;;
72649;SDS011;61467;50.674;4.618;2023-07-28T12:05:27;3.92;;;1.20;;
72649;SDS011;61467;50.674;4.618;2023-07-28T12:07:53;4.35;;;1.40;;
72649;SDS011;61467;50.674;4.618;2023-07-28T12:10:22;4.07;;;1.10;;
72649;SDS011;61467;50.674;4.618;2023-07-28T12:12:49;3.50;;;0.90;;
72649;SDS011;61467;50.674;4.618;2023-07-28T12:15:18;3.83;;;0.90;;
72649;SDS011;61467;50.674;4.618;2023-07-28T12:18:00;3.08;;;1.00;;
72649;SDS011;61467;50.674;4.618;2023-07-28T12:20:37;3.97;;;1.25;;
72649;SDS011;61467;50.674;4.618;2023-07-28T12:23:07;3.60;;;1.20;;
72649;SDS011;61467;50.674;4.618;2023-07-28T12:25:37;3.90;;;0.90;;
72649;SDS011;61467;50.674;4.618;2023-07-28T12:28:04;5.50;;;1.35;;
72649;SDS011;61467;50.674;4.618;2023-07-28T12:30:31;4.05;;;1.08;;
72649;SDS011;61467;50.674;4.618;2023-07-28T12:33:00;3.13;;;0.93;;
72649;SDS011;61467;50.674;4.618;2023-07-28T12:35:27;3.97;;;1.00;;
72649;SDS011;61467;50.674;4.618;2023-07-28T12:37:57;3.27;;;0.80;;
72649;SDS011;61467;50.674;4.618;2023-07-28T12:40:26;3.15;;;0.90;;
72649;SDS011;61467;50.674;4.618;2023-07-28T12:42:56;3.65;;;0.90;;
72649;SDS011;61467;50.674;4.618;2023-07-28T12:45:23;5.10;;;1.17;;
72649;SDS011;61467;50.674;4.618;2023-07-28T12:47:51;4.97;;;1.10;;
72649;SDS011;61467;50.674;4.618;2023-07-28T12:50:18;3.63;;;0.90;;
72649;SDS011;61467;50.674;4.618;2023-07-28T12:52:45;3.80;;;0.90;;
72649;SDS011;61467;50.674;4.618;2023-07-28T12:55:12;3.88;;;1.05;;
72649;SDS011;61467;50.674;4.618;2023-07-28T12:57:39;7.65;;;1.60;;
72649;SDS011;61467;50.674;4.618;2023-07-28T13:00:08;3.80;;;1.13;;
72649;SDS011;61467;50.674;4.618;2023-07-28T13:02:39;3.83;;;1.00;;
72649;SDS011;61467;50.674;4.618;2023-07-28T13:05:06;4.10;;;1.15;;
72649;SDS011;61467;50.674;4.618;2023-07-28T13:07:35;4.45;;;1.38;;
72649;SDS011;61467;50.674;4.618;2023-07-28T13:10:02;4.43;;;1.13;;
72649;SDS011;61467;50.674;4.618;2023-07-28T13:12:30;4.18;;;1.10;;
72649;SDS011;61467;50.674;4.618;2023-07-28T13:14:57;4.67;;;1.30;;
72649;SDS011;61467;50.674;4.618;2023-07-28T13:17:26;5.85;;;1.05;;
72649;SDS011;61467;50.674;4.618;2023-07-28T13:19:53;4.70;;;1.27;;
72649;SDS011;61467;50.674;4.618;2023-07-28T13:22:19;4.57;;;1.20;;
72649;SDS011;61467;50.674;4.618;2023-07-28T13:24:46;3.75;;;1.08;;
72649;SDS011;61467;50.674;4.618;2023-07-28T13:27:13;4.63;;;1.30;;
72649;SDS011;61467;50.674;4.618;2023-07-28T13:29:40;4.55;;;1.10;;
72649;SDS011;61467;50.674;4.618;2023-07-28T13:32:15;4.35;;;1.00;;
72649;SDS011;61467;50.674;4.618;2023-07-28T13:34:44;4.15;;;1.10;;
72649;SDS011;61467;50.674;4.618;2023-07-28T13:37:12;4.03;;;1.00;;
72649;SDS011;61467;50.674;4.618;2023-07-28T13:39:39;4.47;;;0.83;;
72649;SDS011;61467;50.674;4.618;2023-07-28T13:42:06;3.38;;;0.98;;
72649;SDS011;61467;50.674;4.618;2023-07-28T13:44:32;4.43;;;1.35;;
72649;SDS011;61467;50.674;4.618;2023-07-28T13:46:59;4.88;;;1.38;;
72649;SDS011;61467;50.674;4.618;2023-07-28T13:49:26;7.20;;;1.48;;
72649;SDS011;61467;50.674;4.618;2023-07-28T13:51:55;4.47;;;0.90;;
72649;SDS011;61467;50.674;4.618;2023-07-28T13:54:21;3.67;;;1.20;;
72649;SDS011;61467;50.674;4.618;2023-07-28T13:56:48;4.25;;;1.10;;
72649;SDS011;61467;50.674;4.618;2023-07-28T13:59:15;4.03;;;1.30;;
72649;SDS011;61467;50.674;4.618;2023-07-28T14:01:42;4.93;;;1.02;;
72649;SDS011;61467;50.674;4.618;2023-07-28T14:04:09;4.60;;;1.10;;
72649;SDS011;61467;50.674;4.618;2023-07-28T14:06:36;6.03;;;1.20;;
72649;SDS011;61467;50.674;4.618;2023-07-28T14:09:04;4.43;;;1.13;;
72649;SDS011;61467;50.674;4.618;2023-07-28T14:11:31;3.28;;;1.10;;
72649;SDS011;61467;50.674;4.618;2023-07-28T14:13:57;6.65;;;1.58;;
72649;SDS011;61467;50.674;4.618;2023-07-28T14:16:24;4.80;;;1.60;;
72649;SDS011;61467;50.674;4.618;2023-07-28T14:18:51;4.82;;;1.20;;
72649;SDS011;61467;50.674;4.618;2023-07-28T14:21:18;5.13;;;0.80;;
72649;SDS011;61467;50.674;4.618;2023-07-28T14:23:45;4.95;;;1.30;;
72649;SDS011;61467;50.674;4.618;2023-07-28T14:26:13;4.05;;;1.10;;
72649;SDS011;61467;50.674;4.618;2023-07-28T14:28:40;4.57;;;1.33;;
72649;SDS011;61467;50.674;4.618;2023-07-28T14:31:07;6.00;;;1.10;;
72649;SDS011;61467;50.674;4.618;2023-07-28T14:33:34;3.58;;;1.00;;
72649;SDS011;61467;50.674;4.618;2023-07-28T14:36:01;3.75;;;1.08;;
72649;SDS011;61467;50.674;4.618;2023-07-28T14:38:28;4.07;;;1.08;;
72649;SDS011;61467;50.674;4.618;2023-07-28T14:40:55;4.67;;;1.33;;
72649;SDS011;61467;50.674;4.618;2023-07-28T14:43:23;3.33;;;1.00;;
72649;SDS011;61467;50.674;4.618;2023-07-28T14:45:50;4.32;;;1.20;;
72649;SDS011;61467;50.674;4.618;2023-07-28T14:48:17;3.67;;;1.10;;
72649;SDS011;61467;50.674;4.618;2023-07-28T14:50:44;3.58;;;1.10;;
72649;SDS011;61467;50.674;4.618;2023-07-28T14:55:59;4.65;;;1.13;;